sensor_id;sensor_type;location;lat;lon;timestamp;temperature;humidity
38380;DHT22;38377;47.418;18.882;2022-08-01T00:00:33;15.10;99.90
38380;DHT22;38377;47.418;18.882;2022-08-01T00:02:59;15.00;99.90
38380;DHT22;38377;47.418;18.882;2022-08-01T00:05:25;15.00;99.90
38380;DHT22;38377;47.418;18.882;2022-08-01T00:07:51;15.00;99.90
38380;DHT22;38377;47.418;18.882;2022-08-01T00:10:17;15.00;99.90
38380;DHT22;38377;47.418;18.882;2022-08-01T00:12:44;14.90;99.90
38380;DHT22;38377;47.418;18.882;2022-08-01T00:15:13;14.90;99.90
38380;DHT22;38377;47.418;18.882;2022-08-01T00:17:39;14.90;99.90
38380;DHT22;38377;47.418;18.882;2022-08-01T00:20:08;15.00;99.90
38380;DHT22;38377;47.418;18.882;2022-08-01T00:22:34;15.10;99.90
38380;DHT22;38377;47.418;18.882;2022-08-01T00:25:00;15.10;99.90
38380;DHT22;38377;47.418;18.882;2022-08-01T00:27:26;15.10;99.90
38380;DHT22;38377;47.418;18.882;2022-08-01T00:29:52;15.00;99.90
38380;DHT22;38377;47.418;18.882;2022-08-01T00:32:18;14.90;99.90
38380;DHT22;38377;47.418;18.882;2022-08-01T00:34:44;15.00;99.90
38380;DHT22;38377;47.418;18.882;2022-08-01T00:37:10;15.00;99.90
38380;DHT22;38377;47.418;18.882;2022-08-01T00:39:35;15.10;99.90
38380;DHT22;38377;47.418;18.882;2022-08-01T00:42:07;15.10;99.90
38380;DHT22;38377;47.418;18.882;2022-08-01T00:44:34;15.10;99.90
38380;DHT22;38377;47.418;18.882;2022-08-01T00:47:00;15.10;99.90
38380;DHT22;38377;47.418;18.882;2022-08-01T00:49:26;15.20;99.90
38380;DHT22;38377;47.418;18.882;2022-08-01T00:51:52;15.20;99.90
38380;DHT22;38377;47.418;18.882;2022-08-01T00:54:18;15.20;99.90
38380;DHT22;38377;47.418;18.882;2022-08-01T00:56:44;15.20;99.90
38380;DHT22;38377;47.418;18.882;2022-08-01T00:59:11;15.20;99.90
38380;DHT22;38377;47.418;18.882;2022-08-01T01:01:37;15.10;99.90
38380;DHT22;38377;47.418;18.882;2022-08-01T01:04:03;15.10;99.90
38380;DHT22;38377;47.418;18.882;2022-08-01T01:06:44;15.00;99.90
38380;DHT22;38377;47.418;18.882;2022-08-01T01:12:31;14.90;99.90
38380;DHT22;38377;47.418;18.882;2022-08-01T01:18:02;14.70;99.90
38380;DHT22;38377;47.418;18.882;2022-08-01T01:20:34;14.70;99.90
38380;DHT22;38377;47.418;18.882;2022-08-01T01:23:40;14.60;99.90
38380;DHT22;38377;47.418;18.882;2022-08-01T01:31:25;14.20;99.90
38380;DHT22;38377;47.418;18.882;2022-08-01T01:33:53;14.20;99.90
38380;DHT22;38377;47.418;18.882;2022-08-01T01:36:19;14.10;99.90
38380;DHT22;38377;47.418;18.882;2022-08-01T01:38:46;14.10;99.90
38380;DHT22;38377;47.418;18.882;2022-08-01T01:41:16;14.00;99.90
38380;DHT22;38377;47.418;18.882;2022-08-01T01:43:43;13.80;99.90
38380;DHT22;38377;47.418;18.882;2022-08-01T01:46:11;13.80;99.90
38380;DHT22;38377;47.418;18.882;2022-08-01T01:48:38;13.80;99.90
38380;DHT22;38377;47.418;18.882;2022-08-01T01:51:05;13.90;99.90
38380;DHT22;38377;47.418;18.882;2022-08-01T01:53:33;13.90;99.90
38380;DHT22;38377;47.418;18.882;2022-08-01T01:56:00;13.90;99.90
38380;DHT22;38377;47.418;18.882;2022-08-01T01:58:28;13.90;99.90
38380;DHT22;38377;47.418;18.882;2022-08-01T02:00:56;13.80;99.90
38380;DHT22;38377;47.418;18.882;2022-08-01T02:03:25;13.80;99.90
38380;DHT22;38377;47.418;18.882;2022-08-01T02:05:52;13.80;99.90
38380;DHT22;38377;47.418;18.882;2022-08-01T02:08:20;13.80;99.90
38380;DHT22;38377;47.418;18.882;2022-08-01T02:10:46;13.90;99.90
38380;DHT22;38377;47.418;18.882;2022-08-01T02:13:32;14.00;99.90
38380;DHT22;38377;47.418;18.882;2022-08-01T02:15:58;14.10;99.90
38380;DHT22;38377;47.418;18.882;2022-08-01T02:18:24;14.10;99.90
38380;DHT22;38377;47.418;18.882;2022-08-01T02:20:52;14.10;99.90
38380;DHT22;38377;47.418;18.882;2022-08-01T02:23:20;14.10;99.90
38380;DHT22;38377;47.418;18.882;2022-08-01T02:25:50;14.20;99.90
38380;DHT22;38377;47.418;18.882;2022-08-01T02:28:23;14.30;99.90
38380;DHT22;38377;47.418;18.882;2022-08-01T02:30:56;14.40;99.90
38380;DHT22;38377;47.418;18.882;2022-08-01T02:33:38;14.60;99.90
38380;DHT22;38377;47.418;18.882;2022-08-01T02:36:06;14.90;99.90
38380;DHT22;38377;47.418;18.882;2022-08-01T02:38:35;15.20;99.90
38380;DHT22;38377;47.418;18.882;2022-08-01T02:41:05;15.40;99.90
38380;DHT22;38377;47.418;18.882;2022-08-01T02:43:36;15.50;99.90
38380;DHT22;38377;47.418;18.882;2022-08-01T02:46:04;15.70;99.90
38380;DHT22;38377;47.418;18.882;2022-08-01T02:48:34;15.70;99.90
38380;DHT22;38377;47.418;18.882;2022-08-01T02:51:02;15.80;99.90
38380;DHT22;38377;47.418;18.882;2022-08-01T02:53:32;15.90;99.90
38380;DHT22;38377;47.418;18.882;2022-08-01T02:56:04;15.90;99.90
38380;DHT22;38377;47.418;18.882;2022-08-01T02:58:32;15.90;99.90
38380;DHT22;38377;47.418;18.882;2022-08-01T03:00:59;16.00;99.90
38380;DHT22;38377;47.418;18.882;2022-08-01T03:03:25;16.10;99.90
38380;DHT22;38377;47.418;18.882;2022-08-01T03:05:52;16.20;99.90
38380;DHT22;38377;47.418;18.882;2022-08-01T03:08:20;16.20;99.90
38380;DHT22;38377;47.418;18.882;2022-08-01T03:10:47;16.30;99.90
38380;DHT22;38377;47.418;18.882;2022-08-01T03:13:14;16.30;99.90
38380;DHT22;38377;47.418;18.882;2022-08-01T03:15:42;16.30;99.90
38380;DHT22;38377;47.418;18.882;2022-08-01T03:18:10;16.30;99.90
38380;DHT22;38377;47.418;18.882;2022-08-01T03:20:37;16.20;99.90
38380;DHT22;38377;47.418;18.882;2022-08-01T03:23:06;16.30;99.90
38380;DHT22;38377;47.418;18.882;2022-08-01T03:25:34;16.30;99.90
38380;DHT22;38377;47.418;18.882;2022-08-01T03:28:03;16.40;99.90
38380;DHT22;38377;47.418;18.882;2022-08-01T03:30:31;16.40;99.90
38380;DHT22;38377;47.418;18.882;2022-08-01T03:32:58;16.40;99.90
38380;DHT22;38377;47.418;18.882;2022-08-01T03:35:28;16.40;99.90
38380;DHT22;38377;47.418;18.882;2022-08-01T03:37:56;16.50;99.90
38380;DHT22;38377;47.418;18.882;2022-08-01T03:40:40;16.50;99.90
38380;DHT22;38377;47.418;18.882;2022-08-01T03:43:10;16.40;99.90
38380;DHT22;38377;47.418;18.882;2022-08-01T03:45:40;16.30;99.90
38380;DHT22;38377;47.418;18.882;2022-08-01T03:48:14;16.20;99.90
38380;DHT22;38377;47.418;18.882;2022-08-01T03:50:42;16.10;99.90
38380;DHT22;38377;47.418;18.882;2022-08-01T03:53:09;16.20;99.90
38380;DHT22;38377;47.418;18.882;2022-08-01T03:55:38;16.30;99.90
38380;DHT22;38377;47.418;18.882;2022-08-01T03:58:05;16.50;99.90
38380;DHT22;38377;47.418;18.882;2022-08-01T04:00:31;16.70;99.90
38380;DHT22;38377;47.418;18.882;2022-08-01T04:02:58;16.80;99.90
38380;DHT22;38377;47.418;18.882;2022-08-01T04:05:24;16.90;99.90
38380;DHT22;38377;47.418;18.882;2022-08-01T04:07:51;17.00;99.90
38380;DHT22;38377;47.418;18.882;2022-08-01T04:10:24;16.90;99.90
38380;DHT22;38377;47.418;18.882;2022-08-01T04:12:50;16.90;99.90
38380;DHT22;38377;47.418;18.882;2022-08-01T04:15:15;16.90;99.90
38380;DHT22;38377;47.418;18.882;2022-08-01T04:17:41;16.90;99.90
38380;DHT22;38377;47.418;18.882;2022-08-01T04:20:08;17.10;99.90
38380;DHT22;38377;47.418;18.882;2022-08-01T04:22:34;17.20;99.90
38380;DHT22;38377;47.418;18.882;2022-08-01T04:25:02;17.40;99.90
38380;DHT22;38377;47.418;18.882;2022-08-01T04:27:32;17.60;99.90
38380;DHT22;38377;47.418;18.882;2022-08-01T04:30:01;17.70;99.90
38380;DHT22;38377;47.418;18.882;2022-08-01T04:32:33;17.80;99.90
38380;DHT22;38377;47.418;18.882;2022-08-01T04:35:03;17.90;99.90
38380;DHT22;38377;47.418;18.882;2022-08-01T04:37:30;18.00;99.90
38380;DHT22;38377;47.418;18.882;2022-08-01T04:39:57;18.40;99.90
38380;DHT22;38377;47.418;18.882;2022-08-01T04:42:24;18.90;99.90
38380;DHT22;38377;47.418;18.882;2022-08-01T04:44:50;19.10;99.90
38380;DHT22;38377;47.418;18.882;2022-08-01T04:47:17;19.20;99.90
38380;DHT22;38377;47.418;18.882;2022-08-01T04:49:43;19.20;99.90
38380;DHT22;38377;47.418;18.882;2022-08-01T04:52:11;19.20;99.90
38380;DHT22;38377;47.418;18.882;2022-08-01T04:54:37;19.00;99.90
38380;DHT22;38377;47.418;18.882;2022-08-01T04:57:06;19.00;99.90
38380;DHT22;38377;47.418;18.882;2022-08-01T04:59:35;19.00;99.90
38380;DHT22;38377;47.418;18.882;2022-08-01T05:02:38;18.90;99.90
38380;DHT22;38377;47.418;18.882;2022-08-01T05:04:57;18.90;99.90
38380;DHT22;38377;47.418;18.882;2022-08-01T05:07:23;18.90;99.90
38380;DHT22;38377;47.418;18.882;2022-08-01T05:09:48;19.10;99.90
38380;DHT22;38377;47.418;18.882;2022-08-01T05:12:14;19.50;99.90
38380;DHT22;38377;47.418;18.882;2022-08-01T05:14:41;19.90;99.90
38380;DHT22;38377;47.418;18.882;2022-08-01T05:17:08;20.30;99.90
38380;DHT22;38377;47.418;18.882;2022-08-01T05:19:35;20.40;99.90
38380;DHT22;38377;47.418;18.882;2022-08-01T05:22:01;20.40;99.90
38380;DHT22;38377;47.418;18.882;2022-08-01T05:24:31;20.40;99.90
38380;DHT22;38377;47.418;18.882;2022-08-01T05:26:57;20.20;99.90
38380;DHT22;38377;47.418;18.882;2022-08-01T05:29:23;20.30;99.90
38380;DHT22;38377;47.418;18.882;2022-08-01T05:31:49;20.60;99.90
38380;DHT22;38377;47.418;18.882;2022-08-01T05:34:15;21.20;99.90
38380;DHT22;38377;47.418;18.882;2022-08-01T05:36:41;21.90;99.90
38380;DHT22;38377;47.418;18.882;2022-08-01T05:39:07;22.60;99.90
38380;DHT22;38377;47.418;18.882;2022-08-01T05:41:33;23.10;99.90
38380;DHT22;38377;47.418;18.882;2022-08-01T05:43:59;23.50;98.00
38380;DHT22;38377;47.418;18.882;2022-08-01T05:46:25;23.50;97.80
38380;DHT22;38377;47.418;18.882;2022-08-01T05:48:51;23.40;97.30
38380;DHT22;38377;47.418;18.882;2022-08-01T05:51:16;23.40;97.80
38380;DHT22;38377;47.418;18.882;2022-08-01T05:53:42;23.20;98.00
38380;DHT22;38377;47.418;18.882;2022-08-01T05:56:08;22.70;98.60
38380;DHT22;38377;47.418;18.882;2022-08-01T05:58:33;22.40;98.60
38380;DHT22;38377;47.418;18.882;2022-08-01T06:00:59;22.30;99.50
38380;DHT22;38377;47.418;18.882;2022-08-01T06:03:25;22.20;99.90
38380;DHT22;38377;47.418;18.882;2022-08-01T06:05:53;21.90;99.90
38380;DHT22;38377;47.418;18.882;2022-08-01T06:08:19;21.90;99.90
38380;DHT22;38377;47.418;18.882;2022-08-01T06:10:45;21.90;99.90
38380;DHT22;38377;47.418;18.882;2022-08-01T06:13:10;21.90;99.90
38380;DHT22;38377;47.418;18.882;2022-08-01T06:15:36;22.00;99.70
38380;DHT22;38377;47.418;18.882;2022-08-01T06:18:02;21.90;99.40
38380;DHT22;38377;47.418;18.882;2022-08-01T06:20:29;22.00;99.10
38380;DHT22;38377;47.418;18.882;2022-08-01T06:22:54;22.00;99.70
38380;DHT22;38377;47.418;18.882;2022-08-01T06:25:20;22.10;99.20
38380;DHT22;38377;47.418;18.882;2022-08-01T06:27:46;22.10;99.20
38380;DHT22;38377;47.418;18.882;2022-08-01T06:30:11;22.00;99.20
38380;DHT22;38377;47.418;18.882;2022-08-01T06:32:37;22.00;99.80
38380;DHT22;38377;47.418;18.882;2022-08-01T06:35:03;22.10;99.80
38380;DHT22;38377;47.418;18.882;2022-08-01T06:37:30;22.10;99.70
38380;DHT22;38377;47.418;18.882;2022-08-01T06:40:03;22.20;99.10
38380;DHT22;38377;47.418;18.882;2022-08-01T06:42:29;22.30;98.50
38380;DHT22;38377;47.418;18.882;2022-08-01T06:44:57;22.30;98.70
38380;DHT22;38377;47.418;18.882;2022-08-01T06:47:23;22.50;97.40
38380;DHT22;38377;47.418;18.882;2022-08-01T06:49:48;22.60;96.00
38380;DHT22;38377;47.418;18.882;2022-08-01T06:52:14;22.70;95.00
38380;DHT22;38377;47.418;18.882;2022-08-01T06:54:40;22.80;95.30
38380;DHT22;38377;47.418;18.882;2022-08-01T06:57:05;22.80;94.50
38380;DHT22;38377;47.418;18.882;2022-08-01T06:59:31;22.90;92.90
38380;DHT22;38377;47.418;18.882;2022-08-01T07:01:57;23.00;94.00
38380;DHT22;38377;47.418;18.882;2022-08-01T07:04:23;23.10;95.10
38380;DHT22;38377;47.418;18.882;2022-08-01T07:06:48;23.30;94.20
38380;DHT22;38377;47.418;18.882;2022-08-01T07:09:14;23.30;94.30
38380;DHT22;38377;47.418;18.882;2022-08-01T07:11:40;23.40;94.50
38380;DHT22;38377;47.418;18.882;2022-08-01T07:14:05;23.50;93.50
38380;DHT22;38377;47.418;18.882;2022-08-01T07:16:31;23.60;94.20
38380;DHT22;38377;47.418;18.882;2022-08-01T07:18:57;23.80;92.40
38380;DHT22;38377;47.418;18.882;2022-08-01T07:21:23;23.80;91.80
38380;DHT22;38377;47.418;18.882;2022-08-01T07:23:48;24.10;93.40
38380;DHT22;38377;47.418;18.882;2022-08-01T07:26:14;24.40;92.50
38380;DHT22;38377;47.418;18.882;2022-08-01T07:28:40;24.70;92.60
38380;DHT22;38377;47.418;18.882;2022-08-01T07:31:05;25.20;91.20
38380;DHT22;38377;47.418;18.882;2022-08-01T07:33:31;25.40;90.90
38380;DHT22;38377;47.418;18.882;2022-08-01T07:35:57;25.40;91.40
38380;DHT22;38377;47.418;18.882;2022-08-01T07:38:22;25.30;91.70
38380;DHT22;38377;47.418;18.882;2022-08-01T07:40:48;25.30;91.30
38380;DHT22;38377;47.418;18.882;2022-08-01T07:43:14;25.40;90.90
38380;DHT22;38377;47.418;18.882;2022-08-01T07:45:40;25.50;91.30
38380;DHT22;38377;47.418;18.882;2022-08-01T07:48:07;25.50;92.60
38380;DHT22;38377;47.418;18.882;2022-08-01T07:50:33;25.40;92.50
38380;DHT22;38377;47.418;18.882;2022-08-01T07:52:59;24.90;91.10
38380;DHT22;38377;47.418;18.882;2022-08-01T07:55:26;24.60;91.60
38380;DHT22;38377;47.418;18.882;2022-08-01T07:57:52;24.40;92.90
38380;DHT22;38377;47.418;18.882;2022-08-01T08:00:18;24.40;91.70
38380;DHT22;38377;47.418;18.882;2022-08-01T08:02:44;24.20;92.20
38380;DHT22;38377;47.418;18.882;2022-08-01T08:05:10;24.10;92.20
38380;DHT22;38377;47.418;18.882;2022-08-01T08:07:36;24.10;92.90
38380;DHT22;38377;47.418;18.882;2022-08-01T08:10:03;24.10;91.60
38380;DHT22;38377;47.418;18.882;2022-08-01T08:12:29;24.00;93.50
38380;DHT22;38377;47.418;18.882;2022-08-01T08:14:55;23.90;91.70
38380;DHT22;38377;47.418;18.882;2022-08-01T08:17:21;23.90;92.90
38380;DHT22;38377;47.418;18.882;2022-08-01T08:19:47;23.80;92.80
38380;DHT22;38377;47.418;18.882;2022-08-01T08:22:12;23.80;93.30
38380;DHT22;38377;47.418;18.882;2022-08-01T08:24:38;23.80;93.20
38380;DHT22;38377;47.418;18.882;2022-08-01T08:27:04;23.80;93.40
38380;DHT22;38377;47.418;18.882;2022-08-01T08:29:30;23.80;94.40
38380;DHT22;38377;47.418;18.882;2022-08-01T08:32:00;23.80;94.30
38380;DHT22;38377;47.418;18.882;2022-08-01T08:34:27;23.80;94.40
38380;DHT22;38377;47.418;18.882;2022-08-01T08:36:54;23.70;94.50
38380;DHT22;38377;47.418;18.882;2022-08-01T08:39:21;23.70;94.10
38380;DHT22;38377;47.418;18.882;2022-08-01T08:41:47;23.60;92.90
38380;DHT22;38377;47.418;18.882;2022-08-01T08:44:13;23.50;93.70
38380;DHT22;38377;47.418;18.882;2022-08-01T08:46:45;23.40;94.00
38380;DHT22;38377;47.418;18.882;2022-08-01T08:49:13;23.50;94.60
38380;DHT22;38377;47.418;18.882;2022-08-01T08:51:42;23.60;94.00
38380;DHT22;38377;47.418;18.882;2022-08-01T08:54:11;23.60;93.50
38380;DHT22;38377;47.418;18.882;2022-08-01T08:56:39;23.80;93.60
38380;DHT22;38377;47.418;18.882;2022-08-01T08:59:05;23.90;92.70
38380;DHT22;38377;47.418;18.882;2022-08-01T09:01:32;23.90;92.80
38380;DHT22;38377;47.418;18.882;2022-08-01T09:03:58;24.00;92.30
38380;DHT22;38377;47.418;18.882;2022-08-01T09:06:24;24.00;92.40
38380;DHT22;38377;47.418;18.882;2022-08-01T09:08:50;24.10;92.80
38380;DHT22;38377;47.418;18.882;2022-08-01T09:11:16;24.10;92.40
38380;DHT22;38377;47.418;18.882;2022-08-01T09:13:47;24.10;91.60
38380;DHT22;38377;47.418;18.882;2022-08-01T09:16:26;24.20;92.80
38380;DHT22;38377;47.418;18.882;2022-08-01T09:18:51;24.30;91.80
38380;DHT22;38377;47.418;18.882;2022-08-01T09:21:19;24.40;92.50
38380;DHT22;38377;47.418;18.882;2022-08-01T09:23:47;24.50;91.20
38380;DHT22;38377;47.418;18.882;2022-08-01T09:26:17;24.70;90.10
38380;DHT22;38377;47.418;18.882;2022-08-01T09:28:44;24.70;90.60
38380;DHT22;38377;47.418;18.882;2022-08-01T09:31:14;24.80;90.70
38380;DHT22;38377;47.418;18.882;2022-08-01T09:33:57;24.90;90.70
38380;DHT22;38377;47.418;18.882;2022-08-01T09:36:43;25.00;90.70
38380;DHT22;38377;47.418;18.882;2022-08-01T09:39:14;25.00;90.70
38380;DHT22;38377;47.418;18.882;2022-08-01T09:41:40;25.30;90.00
38380;DHT22;38377;47.418;18.882;2022-08-01T09:44:06;25.60;90.80
38380;DHT22;38377;47.418;18.882;2022-08-01T09:46:32;25.90;90.40
38380;DHT22;38377;47.418;18.882;2022-08-01T09:53:55;25.90;89.90
38380;DHT22;38377;47.418;18.882;2022-08-01T09:56:21;25.90;90.00
38380;DHT22;38377;47.418;18.882;2022-08-01T09:58:58;26.30;87.30
38380;DHT22;38377;47.418;18.882;2022-08-01T10:01:24;26.40;85.80
38380;DHT22;38377;47.418;18.882;2022-08-01T10:04:07;26.50;85.20
38380;DHT22;38377;47.418;18.882;2022-08-01T10:06:33;26.50;85.50
38380;DHT22;38377;47.418;18.882;2022-08-01T10:08:58;26.50;84.30
38380;DHT22;38377;47.418;18.882;2022-08-01T10:11:24;26.30;82.20
38380;DHT22;38377;47.418;18.882;2022-08-01T10:13:51;26.40;83.90
38380;DHT22;38377;47.418;18.882;2022-08-01T10:16:18;26.50;82.00
38380;DHT22;38377;47.418;18.882;2022-08-01T10:18:44;26.60;81.30
38380;DHT22;38377;47.418;18.882;2022-08-01T10:21:11;26.70;84.50
38380;DHT22;38377;47.418;18.882;2022-08-01T10:23:38;26.80;81.80
38380;DHT22;38377;47.418;18.882;2022-08-01T10:26:05;26.90;81.50
38380;DHT22;38377;47.418;18.882;2022-08-01T10:28:35;27.00;82.90
38380;DHT22;38377;47.418;18.882;2022-08-01T10:31:01;27.10;81.60
38380;DHT22;38377;47.418;18.882;2022-08-01T10:33:29;27.10;79.20
38380;DHT22;38377;47.418;18.882;2022-08-01T10:35:55;27.00;78.30
38380;DHT22;38377;47.418;18.882;2022-08-01T10:38:22;27.00;78.60
38380;DHT22;38377;47.418;18.882;2022-08-01T10:40:49;26.90;77.80
38380;DHT22;38377;47.418;18.882;2022-08-01T10:43:16;26.80;77.60
38380;DHT22;38377;47.418;18.882;2022-08-01T10:45:43;26.70;78.50
38380;DHT22;38377;47.418;18.882;2022-08-01T10:51:03;26.80;78.80
38380;DHT22;38377;47.418;18.882;2022-08-01T10:53:29;26.90;77.60
38380;DHT22;38377;47.418;18.882;2022-08-01T10:55:59;26.80;77.30
38380;DHT22;38377;47.418;18.882;2022-08-01T10:58:28;26.70;79.00
38380;DHT22;38377;47.418;18.882;2022-08-01T11:01:32;26.80;78.60
38380;DHT22;38377;47.418;18.882;2022-08-01T11:04:05;27.00;77.20
38380;DHT22;38377;47.418;18.882;2022-08-01T11:08:59;27.60;78.50
38380;DHT22;38377;47.418;18.882;2022-08-01T11:11:25;28.20;78.20
38380;DHT22;38377;47.418;18.882;2022-08-01T11:16:28;29.00;74.20
38380;DHT22;38377;47.418;18.882;2022-08-01T11:18:54;29.30;71.60
38380;DHT22;38377;47.418;18.882;2022-08-01T11:21:20;29.20;71.10
38380;DHT22;38377;47.418;18.882;2022-08-01T11:23:50;29.20;72.50
38380;DHT22;38377;47.418;18.882;2022-08-01T11:26:19;29.00;69.90
38380;DHT22;38377;47.418;18.882;2022-08-01T11:31:33;29.30;72.00
38380;DHT22;38377;47.418;18.882;2022-08-01T11:34:00;29.40;70.40
38380;DHT22;38377;47.418;18.882;2022-08-01T11:36:26;29.40;71.60
38380;DHT22;38377;47.418;18.882;2022-08-01T11:41:25;29.40;69.70
38380;DHT22;38377;47.418;18.882;2022-08-01T11:44:08;28.80;70.30
38380;DHT22;38377;47.418;18.882;2022-08-01T11:54:39;28.20;70.10
38380;DHT22;38377;47.418;18.882;2022-08-01T11:57:14;28.00;68.50
38380;DHT22;38377;47.418;18.882;2022-08-01T11:59:43;27.70;70.80
38380;DHT22;38377;47.418;18.882;2022-08-01T12:02:17;27.70;71.00
38380;DHT22;38377;47.418;18.882;2022-08-01T12:04:53;27.70;71.00
38380;DHT22;38377;47.418;18.882;2022-08-01T12:07:20;27.60;69.20
38380;DHT22;38377;47.418;18.882;2022-08-01T12:09:47;27.50;69.90
38380;DHT22;38377;47.418;18.882;2022-08-01T12:12:16;27.50;69.30
38380;DHT22;38377;47.418;18.882;2022-08-01T12:14:44;27.60;70.20
38380;DHT22;38377;47.418;18.882;2022-08-01T12:17:10;27.70;71.80
38380;DHT22;38377;47.418;18.882;2022-08-01T12:19:36;27.60;69.50
38380;DHT22;38377;47.418;18.882;2022-08-01T12:22:13;27.50;68.50
38380;DHT22;38377;47.418;18.882;2022-08-01T12:24:40;27.80;68.60
38380;DHT22;38377;47.418;18.882;2022-08-01T12:27:07;28.10;69.10
38380;DHT22;38377;47.418;18.882;2022-08-01T12:29:39;27.90;69.60
38380;DHT22;38377;47.418;18.882;2022-08-01T12:32:27;27.80;71.10
38380;DHT22;38377;47.418;18.882;2022-08-01T12:34:54;27.60;71.60
38380;DHT22;38377;47.418;18.882;2022-08-01T12:37:20;27.60;71.60
38380;DHT22;38377;47.418;18.882;2022-08-01T12:39:47;27.70;70.60
38380;DHT22;38377;47.418;18.882;2022-08-01T12:42:13;27.80;71.90
38380;DHT22;38377;47.418;18.882;2022-08-01T12:44:40;27.80;71.50
38380;DHT22;38377;47.418;18.882;2022-08-01T12:47:07;27.70;71.50
38380;DHT22;38377;47.418;18.882;2022-08-01T12:49:35;27.50;73.70
38380;DHT22;38377;47.418;18.882;2022-08-01T12:52:02;27.30;72.50
38380;DHT22;38377;47.418;18.882;2022-08-01T12:54:28;27.20;72.00
38380;DHT22;38377;47.418;18.882;2022-08-01T12:56:54;27.10;72.10
38380;DHT22;38377;47.418;18.882;2022-08-01T12:59:27;27.00;71.30
38380;DHT22;38377;47.418;18.882;2022-08-01T13:02:07;26.80;72.40
38380;DHT22;38377;47.418;18.882;2022-08-01T13:04:49;26.80;72.90
38380;DHT22;38377;47.418;18.882;2022-08-01T13:07:16;27.10;72.30
38380;DHT22;38377;47.418;18.882;2022-08-01T13:09:51;27.10;72.80
38380;DHT22;38377;47.418;18.882;2022-08-01T13:12:17;27.00;72.00
38380;DHT22;38377;47.418;18.882;2022-08-01T13:14:43;27.10;71.40
38380;DHT22;38377;47.418;18.882;2022-08-01T13:17:08;27.20;71.00
38380;DHT22;38377;47.418;18.882;2022-08-01T13:19:44;27.50;70.00
38380;DHT22;38377;47.418;18.882;2022-08-01T13:22:12;27.90;68.10
38380;DHT22;38377;47.418;18.882;2022-08-01T13:24:37;27.90;68.10
38380;DHT22;38377;47.418;18.882;2022-08-01T13:27:04;27.60;67.90
38380;DHT22;38377;47.418;18.882;2022-08-01T13:29:34;27.40;68.20
38380;DHT22;38377;47.418;18.882;2022-08-01T13:32:11;27.30;69.80
38380;DHT22;38377;47.418;18.882;2022-08-01T13:34:38;27.10;68.70
38380;DHT22;38377;47.418;18.882;2022-08-01T13:37:04;26.90;70.00
38380;DHT22;38377;47.418;18.882;2022-08-01T13:39:30;27.10;69.90
38380;DHT22;38377;47.418;18.882;2022-08-01T13:42:13;27.40;68.80
38380;DHT22;38377;47.418;18.882;2022-08-01T13:44:39;28.00;70.90
38380;DHT22;38377;47.418;18.882;2022-08-01T13:47:06;28.60;68.20
38380;DHT22;38377;47.418;18.882;2022-08-01T13:49:31;29.00;67.00
38380;DHT22;38377;47.418;18.882;2022-08-01T13:51:58;29.00;66.60
38380;DHT22;38377;47.418;18.882;2022-08-01T13:54:24;29.00;65.90
38380;DHT22;38377;47.418;18.882;2022-08-01T13:56:50;29.00;67.40
38380;DHT22;38377;47.418;18.882;2022-08-01T13:59:16;28.80;66.70
38380;DHT22;38377;47.418;18.882;2022-08-01T14:01:42;28.90;66.00
38380;DHT22;38377;47.418;18.882;2022-08-01T14:04:08;28.90;67.10
38380;DHT22;38377;47.418;18.882;2022-08-01T14:06:34;28.90;65.90
38380;DHT22;38377;47.418;18.882;2022-08-01T14:09:03;28.80;66.40
38380;DHT22;38377;47.418;18.882;2022-08-01T14:11:30;28.90;67.30
38380;DHT22;38377;47.418;18.882;2022-08-01T14:13:55;28.80;66.90
38380;DHT22;38377;47.418;18.882;2022-08-01T14:16:22;28.80;67.10
38380;DHT22;38377;47.418;18.882;2022-08-01T14:18:48;28.90;66.30
38380;DHT22;38377;47.418;18.882;2022-08-01T14:21:13;28.70;67.00
38380;DHT22;38377;47.418;18.882;2022-08-01T14:23:41;28.70;68.10
38380;DHT22;38377;47.418;18.882;2022-08-01T14:26:10;28.50;68.10
38380;DHT22;38377;47.418;18.882;2022-08-01T14:28:36;28.40;67.90
38380;DHT22;38377;47.418;18.882;2022-08-01T14:31:02;28.00;68.40
38380;DHT22;38377;47.418;18.882;2022-08-01T14:33:28;27.70;69.00
38380;DHT22;38377;47.418;18.882;2022-08-01T14:35:54;27.60;70.20
38380;DHT22;38377;47.418;18.882;2022-08-01T14:38:20;27.60;70.00
38380;DHT22;38377;47.418;18.882;2022-08-01T14:40:46;27.60;71.40
38380;DHT22;38377;47.418;18.882;2022-08-01T14:43:17;27.60;70.00
38380;DHT22;38377;47.418;18.882;2022-08-01T14:45:43;27.60;71.10
38380;DHT22;38377;47.418;18.882;2022-08-01T14:48:09;27.60;72.10
38380;DHT22;38377;47.418;18.882;2022-08-01T14:50:35;27.70;70.60
38380;DHT22;38377;47.418;18.882;2022-08-01T14:53:00;27.80;71.10
38380;DHT22;38377;47.418;18.882;2022-08-01T14:55:26;27.70;70.60
38380;DHT22;38377;47.418;18.882;2022-08-01T14:57:52;27.60;71.20
38380;DHT22;38377;47.418;18.882;2022-08-01T15:00:18;27.50;71.70
38380;DHT22;38377;47.418;18.882;2022-08-01T15:02:45;27.30;72.00
38380;DHT22;38377;47.418;18.882;2022-08-01T15:05:11;27.30;71.50
38380;DHT22;38377;47.418;18.882;2022-08-01T15:07:38;27.30;71.40
38380;DHT22;38377;47.418;18.882;2022-08-01T15:10:04;27.10;71.80
38380;DHT22;38377;47.418;18.882;2022-08-01T15:12:31;27.10;71.20
38380;DHT22;38377;47.418;18.882;2022-08-01T15:14:56;27.00;70.60
38380;DHT22;38377;47.418;18.882;2022-08-01T15:17:30;27.10;70.30
38380;DHT22;38377;47.418;18.882;2022-08-01T15:20:02;27.10;70.60
38380;DHT22;38377;47.418;18.882;2022-08-01T15:22:29;27.10;73.20
38380;DHT22;38377;47.418;18.882;2022-08-01T15:24:57;27.30;69.50
38380;DHT22;38377;47.418;18.882;2022-08-01T15:27:24;27.60;69.10
38380;DHT22;38377;47.418;18.882;2022-08-01T15:29:50;27.80;68.00
38380;DHT22;38377;47.418;18.882;2022-08-01T15:32:16;27.90;69.30
38380;DHT22;38377;47.418;18.882;2022-08-01T15:34:42;27.90;68.00
38380;DHT22;38377;47.418;18.882;2022-08-01T15:37:08;27.80;68.80
38380;DHT22;38377;47.418;18.882;2022-08-01T15:39:35;27.90;69.00
38380;DHT22;38377;47.418;18.882;2022-08-01T15:42:08;27.90;68.60
38380;DHT22;38377;47.418;18.882;2022-08-01T15:44:34;28.00;68.40
38380;DHT22;38377;47.418;18.882;2022-08-01T15:47:00;27.90;68.70
38380;DHT22;38377;47.418;18.882;2022-08-01T15:49:27;27.90;68.30
38380;DHT22;38377;47.418;18.882;2022-08-01T15:51:52;27.90;69.00
38380;DHT22;38377;47.418;18.882;2022-08-01T15:54:18;27.80;68.60
38380;DHT22;38377;47.418;18.882;2022-08-01T15:56:44;27.80;68.10